Terminal Aerodrome Forecast
Issued by NWS

Home | Current Version | Previous Version | Text Only | Print | Product List | Glossary On
Versions: 1 2 3 4 5 6 7 8 9 10 11 12 13 14
000
FTUS45 KRIW 040239 AAA
TAFRKS
TAF AMD
KRKS 040239Z 0403/0424 23012G20KT P6SM VCSH SCT010 BKN050
      TEMPO 0403/0405 BKN010
     FM040600 26017G25KT P6SM VCSH SCT030 OVC050
     FM041000 25014KT P6SM FEW030 SCT050
     FM041900 29020G30KT P6SM FEW120=

USA.gov is the U.S. government's official web portal to all federal, state and local government web resources and services.